Portada
METAR-TAF:

METAR-TAF

Aeropuertos :

Aeropuerto de Valencia

Valencia, España

latitud: 39-30N, longitud: 000-28W, altitud: 69 m

Observación

El informe se hizo hace 37 minutos, a las 08:30 UTC
Viento 2 kt con dirección variable
Temperatura 9°C
Humedad 71%
Presión 1031 hPa
Visibilidad 10 km o más
sin nubes por debajo de 1500 m y sin presencia de cumulonimbus.

METAR: LEVC 220830Z VRB02KT CAVOK 09/04 Q1031 NOSIG

Hora: 10:07 (09:07 UTC)

Pronóstico

El informe se hizo hace 4 horas y 7 minutos, a las 05:00 UTC
Pronóstico válido del 22 a las 06 UTC al 23 a las 06 UTC
Viento 4 kt del oeste-noroeste
Visibilidad 10 km o más
Escasas nubes a una altura de 3000 ft
Evolucionando progresivamente
del 22 a las 10 UTC al 22 a las 12 UTC
Viento 7 kt del sureste
Evolucionando progresivamente
del 22 a las 18 UTC al 22 a las 20 UTC
Viento 6 kt del oeste-noroeste

TAF: LEVC 220500Z 2206/2306 30004KT 9999 FEW030 TX25/2212Z TN02/2206Z BECMG 2210/2212 13007KT BECMG 2218/2220 30006KT

Observaciones y pronósticos meteorológicos de más de 4000 aeropuertos (mensajes METAR y TAF).

Los puntos amarillos y rojos representan las estaciones disponibles.

Ponga el ratón en el punto deseado para ver el nombre de la estación.

Haga clic para ver las observaciones y los pronósticos meteorológicos.

Para cambiar el mapa : haga clic en los botones verdes con una cruz de color negro para hacer un zoom, en el botón verde con un guión para alejar o en las flechas verdes para mapas adyacentes.


METAR-TAF: